sensor_id;sensor_type;location;lat;lon;timestamp;pressure;altitude;pressure_sealevel;temperature;humidity
43394;BME280;62479;62.642;17.954;2022-08-14T00:00:08;102073.97;;;13.43;74.30
43394;BME280;62479;62.642;17.954;2022-08-14T00:02:38;102075.07;;;13.40;74.07
43394;BME280;62479;62.642;17.954;2022-08-14T00:05:11;102074.31;;;13.28;74.43
43394;BME280;62479;62.642;17.954;2022-08-14T00:07:40;102073.98;;;13.24;75.71
43394;BME280;62479;62.642;17.954;2022-08-14T00:10:12;102074.11;;;13.18;75.82
43394;BME280;62479;62.642;17.954;2022-08-14T00:12:44;102071.70;;;13.17;74.82
43394;BME280;62479;62.642;17.954;2022-08-14T00:15:17;102072.11;;;13.23;74.48
43394;BME280;62479;62.642;17.954;2022-08-14T00:17:47;102072.18;;;13.22;74.76
43394;BME280;62479;62.642;17.954;2022-08-14T00:20:19;102070.04;;;13.30;74.70
43394;BME280;62479;62.642;17.954;2022-08-14T00:22:47;102071.50;;;13.16;74.68
43394;BME280;62479;62.642;17.954;2022-08-14T00:25:16;102071.80;;;13.00;75.04
43394;BME280;62479;62.642;17.954;2022-08-14T00:27:44;102073.43;;;13.16;74.58
43394;BME280;62479;62.642;17.954;2022-08-14T00:30:14;102073.83;;;12.96;74.10
43394;BME280;62479;62.642;17.954;2022-08-14T00:32:48;102072.91;;;13.01;73.81
43394;BME280;62479;62.642;17.954;2022-08-14T00:35:17;102077.68;;;12.88;73.81
43394;BME280;62479;62.642;17.954;2022-08-14T00:37:46;102078.75;;;12.84;73.56
43394;BME280;62479;62.642;17.954;2022-08-14T00:40:16;102082.90;;;12.87;73.35
43394;BME280;62479;62.642;17.954;2022-08-14T00:42:45;102079.24;;;12.79;73.34
43394;BME280;62479;62.642;17.954;2022-08-14T00:45:15;102078.30;;;12.75;73.75
43394;BME280;62479;62.642;17.954;2022-08-14T00:47:45;102080.68;;;12.70;74.57
43394;BME280;62479;62.642;17.954;2022-08-14T00:50:16;102080.77;;;12.73;74.60
43394;BME280;62479;62.642;17.954;2022-08-14T00:52:48;102082.11;;;12.69;74.54
43394;BME280;62479;62.642;17.954;2022-08-14T00:55:18;102082.19;;;12.73;74.64
43394;BME280;62479;62.642;17.954;2022-08-14T00:57:49;102085.84;;;12.66;74.54
43394;BME280;62479;62.642;17.954;2022-08-14T01:00:24;102087.76;;;12.76;74.84
43394;BME280;62479;62.642;17.954;2022-08-14T01:02:53;102089.15;;;12.73;75.45
43394;BME280;62479;62.642;17.954;2022-08-14T01:05:23;102090.25;;;12.84;76.09
43394;BME280;62479;62.642;17.954;2022-08-14T01:07:54;102086.83;;;12.68;75.92
43394;BME280;62479;62.642;17.954;2022-08-14T01:10:24;102081.73;;;12.68;75.80
43394;BME280;62479;62.642;17.954;2022-08-14T01:12:53;102085.49;;;12.76;76.78
43394;BME280;62479;62.642;17.954;2022-08-14T01:15:23;102082.50;;;12.58;76.97
43394;BME280;62479;62.642;17.954;2022-08-14T01:17:52;102085.86;;;12.69;76.86
43394;BME280;62479;62.642;17.954;2022-08-14T01:20:20;102086.84;;;12.68;77.50
43394;BME280;62479;62.642;17.954;2022-08-14T01:22:48;102083.85;;;12.69;76.85
43394;BME280;62479;62.642;17.954;2022-08-14T01:25:17;102082.89;;;12.61;76.24
43394;BME280;62479;62.642;17.954;2022-08-14T01:27:46;102079.55;;;12.60;75.99
43394;BME280;62479;62.642;17.954;2022-08-14T01:30:15;102078.32;;;12.57;75.55
43394;BME280;62479;62.642;17.954;2022-08-14T01:32:43;102078.43;;;12.58;75.16
43394;BME280;62479;62.642;17.954;2022-08-14T01:35:12;102074.55;;;12.62;74.86
43394;BME280;62479;62.642;17.954;2022-08-14T01:37:42;102074.27;;;12.51;74.95
43394;BME280;62479;62.642;17.954;2022-08-14T01:40:11;102076.66;;;12.49;75.02
43394;BME280;62479;62.642;17.954;2022-08-14T01:42:40;102074.06;;;12.56;74.69
43394;BME280;62479;62.642;17.954;2022-08-14T01:45:10;102075.33;;;12.64;74.69
43394;BME280;62479;62.642;17.954;2022-08-14T01:47:39;102074.17;;;12.51;74.89
43394;BME280;62479;62.642;17.954;2022-08-14T01:50:08;102073.25;;;12.37;74.70
43394;BME280;62479;62.642;17.954;2022-08-14T01:52:37;102074.85;;;12.52;74.42
43394;BME280;62479;62.642;17.954;2022-08-14T01:55:07;102071.08;;;12.48;74.35
43394;BME280;62479;62.642;17.954;2022-08-14T01:57:36;102070.98;;;12.24;74.37
43394;BME280;62479;62.642;17.954;2022-08-14T02:00:06;102071.87;;;12.24;74.67
43394;BME280;62479;62.642;17.954;2022-08-14T02:02:35;102072.56;;;12.37;74.79
43394;BME280;62479;62.642;17.954;2022-08-14T02:05:04;102072.91;;;12.23;74.90
43394;BME280;62479;62.642;17.954;2022-08-14T02:07:32;102072.61;;;12.26;75.01
43394;BME280;62479;62.642;17.954;2022-08-14T02:10:01;102075.04;;;12.34;75.06
43394;BME280;62479;62.642;17.954;2022-08-14T02:12:30;102073.02;;;12.21;75.22
43394;BME280;62479;62.642;17.954;2022-08-14T02:14:58;102068.32;;;12.15;75.62
43394;BME280;62479;62.642;17.954;2022-08-14T02:17:28;102064.68;;;12.10;75.65
43394;BME280;62479;62.642;17.954;2022-08-14T02:19:56;102064.87;;;12.08;75.58
43394;BME280;62479;62.642;17.954;2022-08-14T02:22:25;102061.80;;;12.16;75.49
43394;BME280;62479;62.642;17.954;2022-08-14T02:24:53;102060.81;;;12.14;75.64
43394;BME280;62479;62.642;17.954;2022-08-14T02:27:22;102061.20;;;12.03;75.81
43394;BME280;62479;62.642;17.954;2022-08-14T02:29:52;102059.19;;;11.95;76.33
43394;BME280;62479;62.642;17.954;2022-08-14T02:32:21;102059.57;;;11.89;76.87
43394;BME280;62479;62.642;17.954;2022-08-14T02:34:49;102063.07;;;11.88;76.74
43394;BME280;62479;62.642;17.954;2022-08-14T02:37:18;102061.73;;;11.81;76.82
43394;BME280;62479;62.642;17.954;2022-08-14T02:39:47;102061.90;;;12.00;76.85
43394;BME280;62479;62.642;17.954;2022-08-14T02:42:17;102059.74;;;12.04;76.57
43394;BME280;62479;62.642;17.954;2022-08-14T02:44:46;102058.97;;;12.00;76.73
43394;BME280;62479;62.642;17.954;2022-08-14T02:47:15;102055.51;;;12.04;77.05
43394;BME280;62479;62.642;17.954;2022-08-14T02:49:43;102055.51;;;11.99;77.34
43394;BME280;62479;62.642;17.954;2022-08-14T02:52:12;102054.86;;;11.97;77.20
43394;BME280;62479;62.642;17.954;2022-08-14T02:54:40;102053.24;;;12.09;76.35
43394;BME280;62479;62.642;17.954;2022-08-14T02:57:09;102053.41;;;12.01;76.91
43394;BME280;62479;62.642;17.954;2022-08-14T02:59:39;102051.67;;;12.02;77.41
43394;BME280;62479;62.642;17.954;2022-08-14T03:02:08;102049.50;;;12.03;77.78
43394;BME280;62479;62.642;17.954;2022-08-14T03:04:37;102044.82;;;12.21;78.18
43394;BME280;62479;62.642;17.954;2022-08-14T03:07:05;102043.94;;;12.25;78.14
43394;BME280;62479;62.642;17.954;2022-08-14T03:09:35;102047.47;;;12.14;78.07
43394;BME280;62479;62.642;17.954;2022-08-14T03:12:03;102045.71;;;12.04;78.00
43394;BME280;62479;62.642;17.954;2022-08-14T03:14:31;102043.72;;;12.09;77.74
43394;BME280;62479;62.642;17.954;2022-08-14T03:17:00;102042.05;;;12.25;77.65
43394;BME280;62479;62.642;17.954;2022-08-14T03:19:29;102041.09;;;12.22;77.80
43394;BME280;62479;62.642;17.954;2022-08-14T03:21:58;102037.43;;;12.15;78.07
43394;BME280;62479;62.642;17.954;2022-08-14T03:24:26;102036.11;;;12.31;77.95
43394;BME280;62479;62.642;17.954;2022-08-14T03:26:55;102035.23;;;12.46;77.55
43394;BME280;62479;62.642;17.954;2022-08-14T03:29:24;102037.30;;;12.42;76.89
43394;BME280;62479;62.642;17.954;2022-08-14T03:31:53;102033.13;;;12.46;76.31
43394;BME280;62479;62.642;17.954;2022-08-14T03:34:23;102034.49;;;12.51;76.58
43394;BME280;62479;62.642;17.954;2022-08-14T03:36:52;102037.46;;;12.46;76.12
43394;BME280;62479;62.642;17.954;2022-08-14T03:39:25;102039.04;;;12.61;76.38
43394;BME280;62479;62.642;17.954;2022-08-14T03:41:55;102040.64;;;12.57;75.51
43394;BME280;62479;62.642;17.954;2022-08-14T03:44:24;102039.17;;;12.65;75.79
43394;BME280;62479;62.642;17.954;2022-08-14T03:46:53;102039.73;;;12.76;76.30
43394;BME280;62479;62.642;17.954;2022-08-14T03:49:22;102036.28;;;12.78;75.95
43394;BME280;62479;62.642;17.954;2022-08-14T03:51:53;102033.06;;;12.73;75.97
43394;BME280;62479;62.642;17.954;2022-08-14T03:54:22;102037.89;;;12.83;75.97
43394;BME280;62479;62.642;17.954;2022-08-14T03:56:51;102040.95;;;12.85;75.94
43394;BME280;62479;62.642;17.954;2022-08-14T03:59:25;102044.04;;;12.91;75.97
43394;BME280;62479;62.642;17.954;2022-08-14T04:03:16;102043.41;;;12.98;75.82
43394;BME280;62479;62.642;17.954;2022-08-14T04:05:45;102046.94;;;13.45;74.89
43394;BME280;62479;62.642;17.954;2022-08-14T04:08:13;102047.11;;;13.51;74.33
43394;BME280;62479;62.642;17.954;2022-08-14T04:10:42;102039.17;;;13.91;73.54
43394;BME280;62479;62.642;17.954;2022-08-14T04:13:11;102031.81;;;14.45;71.64
43394;BME280;62479;62.642;17.954;2022-08-14T04:15:41;102030.18;;;14.51;71.05
43394;BME280;62479;62.642;17.954;2022-08-14T04:18:10;102034.78;;;14.27;71.57
43394;BME280;62479;62.642;17.954;2022-08-14T04:20:43;102036.79;;;13.92;72.07
43394;BME280;62479;62.642;17.954;2022-08-14T04:23:12;102037.67;;;13.95;72.48
43394;BME280;62479;62.642;17.954;2022-08-14T04:25:41;102037.19;;;13.92;72.57
43394;BME280;62479;62.642;17.954;2022-08-14T04:28:10;102037.37;;;13.77;72.80
43394;BME280;62479;62.642;17.954;2022-08-14T04:30:39;102039.00;;;13.74;73.07
43394;BME280;62479;62.642;17.954;2022-08-14T04:33:08;102038.11;;;13.57;73.16
43394;BME280;62479;62.642;17.954;2022-08-14T04:35:37;102038.52;;;13.65;73.42
43394;BME280;62479;62.642;17.954;2022-08-14T04:38:06;102035.34;;;13.52;73.63
43394;BME280;62479;62.642;17.954;2022-08-14T04:40:34;102036.43;;;13.53;73.83
43394;BME280;62479;62.642;17.954;2022-08-14T04:43:03;102036.50;;;13.62;73.50
43394;BME280;62479;62.642;17.954;2022-08-14T04:45:31;102038.76;;;13.65;73.58
43394;BME280;62479;62.642;17.954;2022-08-14T04:48:00;102034.06;;;13.69;73.78
43394;BME280;62479;62.642;17.954;2022-08-14T04:50:28;102032.34;;;13.68;74.07
43394;BME280;62479;62.642;17.954;2022-08-14T04:52:57;102032.09;;;13.74;73.98
43394;BME280;62479;62.642;17.954;2022-08-14T04:55:26;102032.21;;;13.89;73.84
43394;BME280;62479;62.642;17.954;2022-08-14T04:57:55;102031.38;;;13.91;73.61
43394;BME280;62479;62.642;17.954;2022-08-14T05:00:24;102029.50;;;13.88;73.52
43394;BME280;62479;62.642;17.954;2022-08-14T05:02:54;102025.75;;;14.04;73.43
43394;BME280;62479;62.642;17.954;2022-08-14T05:05:23;102026.99;;;15.12;71.60
43394;BME280;62479;62.642;17.954;2022-08-14T05:07:54;102029.33;;;16.04;68.01
43394;BME280;62479;62.642;17.954;2022-08-14T05:10:24;102036.67;;;15.79;67.89
43394;BME280;62479;62.642;17.954;2022-08-14T05:12:53;102036.91;;;15.55;68.15
43394;BME280;62479;62.642;17.954;2022-08-14T05:15:23;102038.40;;;15.39;68.76
43394;BME280;62479;62.642;17.954;2022-08-14T05:17:51;102037.81;;;15.20;68.93
43394;BME280;62479;62.642;17.954;2022-08-14T05:20:20;102037.42;;;15.63;68.96
43394;BME280;62479;62.642;17.954;2022-08-14T05:22:49;102032.90;;;15.65;68.65
43394;BME280;62479;62.642;17.954;2022-08-14T05:25:17;102033.86;;;15.57;68.67
43394;BME280;62479;62.642;17.954;2022-08-14T05:27:46;102030.84;;;15.54;68.93
43394;BME280;62479;62.642;17.954;2022-08-14T05:30:14;102029.47;;;15.61;69.03
43394;BME280;62479;62.642;17.954;2022-08-14T05:32:43;102029.53;;;15.72;68.82
43394;BME280;62479;62.642;17.954;2022-08-14T05:35:11;102028.56;;;15.88;68.53
43394;BME280;62479;62.642;17.954;2022-08-14T05:37:40;102024.30;;;15.98;68.51
43394;BME280;62479;62.642;17.954;2022-08-14T05:40:09;102019.20;;;16.33;68.08
43394;BME280;62479;62.642;17.954;2022-08-14T05:42:37;102012.72;;;18.38;64.43
43394;BME280;62479;62.642;17.954;2022-08-14T05:45:07;102007.57;;;22.17;54.47
43394;BME280;62479;62.642;17.954;2022-08-14T05:47:39;101998.20;;;25.22;47.43
43394;BME280;62479;62.642;17.954;2022-08-14T05:50:11;101992.69;;;27.51;40.82
43394;BME280;62479;62.642;17.954;2022-08-14T05:52:40;101984.20;;;28.30;38.40
43394;BME280;62479;62.642;17.954;2022-08-14T05:55:10;101982.54;;;29.61;35.30
43394;BME280;62479;62.642;17.954;2022-08-14T05:57:48;101983.57;;;31.53;33.36
43394;BME280;62479;62.642;17.954;2022-08-14T06:00:20;101979.59;;;32.38;30.73
43394;BME280;62479;62.642;17.954;2022-08-14T06:02:50;101977.42;;;32.58;29.46
43394;BME280;62479;62.642;17.954;2022-08-14T06:05:19;101978.70;;;33.10;29.05
43394;BME280;62479;62.642;17.954;2022-08-14T06:07:48;101981.67;;;32.86;29.31
43394;BME280;62479;62.642;17.954;2022-08-14T06:10:17;101980.90;;;32.96;27.96
43394;BME280;62479;62.642;17.954;2022-08-14T06:12:45;101979.69;;;32.92;27.00
43394;BME280;62479;62.642;17.954;2022-08-14T06:15:13;101978.32;;;32.64;27.37
43394;BME280;62479;62.642;17.954;2022-08-14T06:17:43;101979.95;;;32.64;28.36
43394;BME280;62479;62.642;17.954;2022-08-14T06:20:12;101977.34;;;32.78;27.75
43394;BME280;62479;62.642;17.954;2022-08-14T06:22:43;101975.58;;;32.69;27.58
43394;BME280;62479;62.642;17.954;2022-08-14T06:25:14;101978.40;;;32.63;27.50
43394;BME280;62479;62.642;17.954;2022-08-14T06:27:43;101981.07;;;32.93;27.89
43394;BME280;62479;62.642;17.954;2022-08-14T06:30:15;101980.08;;;33.44;26.67
43394;BME280;62479;62.642;17.954;2022-08-14T06:32:44;101979.93;;;33.71;26.26
43394;BME280;62479;62.642;17.954;2022-08-14T06:35:14;101979.71;;;33.80;26.37
43394;BME280;62479;62.642;17.954;2022-08-14T06:37:46;101973.92;;;34.47;25.47
43394;BME280;62479;62.642;17.954;2022-08-14T06:40:18;101974.99;;;34.45;24.61
43394;BME280;62479;62.642;17.954;2022-08-14T06:42:48;101973.22;;;34.57;25.06
43394;BME280;62479;62.642;17.954;2022-08-14T06:45:18;101971.03;;;34.41;24.68
43394;BME280;62479;62.642;17.954;2022-08-14T06:47:46;101967.67;;;34.07;24.75
43394;BME280;62479;62.642;17.954;2022-08-14T06:50:16;101968.22;;;33.85;24.76
43394;BME280;62479;62.642;17.954;2022-08-14T06:52:45;101969.43;;;34.45;24.60
43394;BME280;62479;62.642;17.954;2022-08-14T06:55:15;101972.28;;;33.45;25.09
43394;BME280;62479;62.642;17.954;2022-08-14T06:57:45;101968.29;;;33.87;25.01
43394;BME280;62479;62.642;17.954;2022-08-14T07:00:16;101969.36;;;33.86;25.77
43394;BME280;62479;62.642;17.954;2022-08-14T07:02:46;101972.81;;;34.44;24.04
43394;BME280;62479;62.642;17.954;2022-08-14T07:05:15;101969.56;;;34.94;24.45
43394;BME280;62479;62.642;17.954;2022-08-14T07:07:44;101969.30;;;35.23;24.00
43394;BME280;62479;62.642;17.954;2022-08-14T07:10:12;101970.16;;;35.34;23.56
43394;BME280;62479;62.642;17.954;2022-08-14T07:12:40;101969.85;;;35.34;23.66
43394;BME280;62479;62.642;17.954;2022-08-14T07:15:09;101971.41;;;35.67;22.93
43394;BME280;62479;62.642;17.954;2022-08-14T07:17:44;101974.94;;;35.27;23.01
43394;BME280;62479;62.642;17.954;2022-08-14T07:20:13;101975.00;;;34.98;23.99
43394;BME280;62479;62.642;17.954;2022-08-14T07:22:40;101979.11;;;35.55;22.62
43394;BME280;62479;62.642;17.954;2022-08-14T07:25:09;101980.48;;;34.17;23.48
43394;BME280;62479;62.642;17.954;2022-08-14T07:27:38;101973.26;;;34.04;24.35
43394;BME280;62479;62.642;17.954;2022-08-14T07:30:09;101969.80;;;33.92;23.90
43394;BME280;62479;62.642;17.954;2022-08-14T07:32:37;101967.20;;;34.11;24.03
43394;BME280;62479;62.642;17.954;2022-08-14T07:35:06;101962.18;;;34.88;23.53
43394;BME280;62479;62.642;17.954;2022-08-14T07:37:36;101963.95;;;35.12;23.09
43394;BME280;62479;62.642;17.954;2022-08-14T07:40:05;101963.45;;;35.26;22.52
43394;BME280;62479;62.642;17.954;2022-08-14T07:42:34;101960.88;;;35.70;22.69
43394;BME280;62479;62.642;17.954;2022-08-14T07:45:03;101959.07;;;35.66;22.54
43394;BME280;62479;62.642;17.954;2022-08-14T07:47:31;101958.50;;;35.93;22.37
43394;BME280;62479;62.642;17.954;2022-08-14T07:50:02;101961.15;;;35.77;21.90
43394;BME280;62479;62.642;17.954;2022-08-14T07:52:31;101957.83;;;35.82;22.34
43394;BME280;62479;62.642;17.954;2022-08-14T07:54:59;101952.70;;;35.35;22.68
43394;BME280;62479;62.642;17.954;2022-08-14T07:57:27;101953.38;;;35.03;23.07
43394;BME280;62479;62.642;17.954;2022-08-14T07:59:56;101955.97;;;34.89;23.73
43394;BME280;62479;62.642;17.954;2022-08-14T08:02:28;101959.83;;;35.61;22.54
43394;BME280;62479;62.642;17.954;2022-08-14T08:05:00;101958.53;;;35.47;22.88
43394;BME280;62479;62.642;17.954;2022-08-14T08:07:30;101965.28;;;35.74;22.35
43394;BME280;62479;62.642;17.954;2022-08-14T08:10:04;101966.69;;;35.67;22.82
43394;BME280;62479;62.642;17.954;2022-08-14T08:12:33;101968.02;;;36.14;22.55
43394;BME280;62479;62.642;17.954;2022-08-14T08:15:02;101969.55;;;36.28;22.36
43394;BME280;62479;62.642;17.954;2022-08-14T08:17:32;101966.68;;;36.61;22.25
43394;BME280;62479;62.642;17.954;2022-08-14T08:20:02;101967.80;;;36.53;22.06
43394;BME280;62479;62.642;17.954;2022-08-14T08:22:31;101974.01;;;36.56;21.95
43394;BME280;62479;62.642;17.954;2022-08-14T08:25:00;101973.14;;;36.48;22.13
43394;BME280;62479;62.642;17.954;2022-08-14T08:27:28;101972.72;;;36.08;22.63
43394;BME280;62479;62.642;17.954;2022-08-14T08:30:03;101977.61;;;35.30;22.87
43394;BME280;62479;62.642;17.954;2022-08-14T08:32:37;101973.29;;;35.53;23.61
43394;BME280;62479;62.642;17.954;2022-08-14T08:35:09;101972.52;;;35.57;23.03
43394;BME280;62479;62.642;17.954;2022-08-14T08:37:37;101969.14;;;35.59;23.42
43394;BME280;62479;62.642;17.954;2022-08-14T08:40:06;101967.05;;;35.51;23.39
43394;BME280;62479;62.642;17.954;2022-08-14T08:42:35;101966.57;;;35.93;23.39
43394;BME280;62479;62.642;17.954;2022-08-14T08:45:09;101962.03;;;36.27;23.00
43394;BME280;62479;62.642;17.954;2022-08-14T08:47:39;101964.84;;;35.87;22.85
43394;BME280;62479;62.642;17.954;2022-08-14T08:50:16;101966.78;;;34.99;23.86
43394;BME280;62479;62.642;17.954;2022-08-14T08:52:48;101968.27;;;35.31;23.64
43394;BME280;62479;62.642;17.954;2022-08-14T08:55:24;101966.15;;;35.60;23.47
43394;BME280;62479;62.642;17.954;2022-08-14T08:57:56;101963.71;;;35.46;23.21
43394;BME280;62479;62.642;17.954;2022-08-14T09:00:27;101962.59;;;35.57;22.74
43394;BME280;62479;62.642;17.954;2022-08-14T09:02:57;101960.47;;;34.89;23.55
43394;BME280;62479;62.642;17.954;2022-08-14T09:05:30;101950.89;;;34.66;24.22
43394;BME280;62479;62.642;17.954;2022-08-14T09:08:17;101946.91;;;34.45;24.68
43394;BME280;62479;62.642;17.954;2022-08-14T09:10:51;101944.56;;;34.66;23.92
43394;BME280;62479;62.642;17.954;2022-08-14T09:13:21;101948.09;;;34.54;24.05
43394;BME280;62479;62.642;17.954;2022-08-14T09:15:51;101946.23;;;35.24;22.99
43394;BME280;62479;62.642;17.954;2022-08-14T09:18:21;101945.34;;;35.03;23.57
43394;BME280;62479;62.642;17.954;2022-08-14T09:20:52;101939.00;;;34.54;23.42
43394;BME280;62479;62.642;17.954;2022-08-14T09:23:22;101940.95;;;34.67;23.54
43394;BME280;62479;62.642;17.954;2022-08-14T09:25:51;101939.92;;;34.70;23.18
43394;BME280;62479;62.642;17.954;2022-08-14T09:28:19;101941.58;;;34.21;23.61
43394;BME280;62479;62.642;17.954;2022-08-14T09:30:49;101941.38;;;33.70;24.30
43394;BME280;62479;62.642;17.954;2022-08-14T09:33:28;101950.69;;;31.73;27.23
43394;BME280;62479;62.642;17.954;2022-08-14T09:36:23;101958.83;;;29.41;29.71
43394;BME280;62479;62.642;17.954;2022-08-14T09:39:01;101954.58;;;28.32;33.22
43394;BME280;62479;62.642;17.954;2022-08-14T09:41:41;101952.22;;;27.90;33.70
43394;BME280;62479;62.642;17.954;2022-08-14T09:44:26;101949.75;;;26.91;35.00
43394;BME280;62479;62.642;17.954;2022-08-14T09:46:56;101947.96;;;26.73;36.23
43394;BME280;62479;62.642;17.954;2022-08-14T09:49:33;101939.20;;;27.03;35.60
43394;BME280;62479;62.642;17.954;2022-08-14T09:52:05;101937.95;;;27.00;36.58
43394;BME280;62479;62.642;17.954;2022-08-14T09:54:36;101930.98;;;28.11;34.29
43394;BME280;62479;62.642;17.954;2022-08-14T09:57:06;101925.51;;;29.43;32.10
43394;BME280;62479;62.642;17.954;2022-08-14T09:59:44;101925.82;;;30.61;30.88
43394;BME280;62479;62.642;17.954;2022-08-14T10:03:27;101928.93;;;30.99;30.50
43394;BME280;62479;62.642;17.954;2022-08-14T10:06:06;101921.48;;;31.57;29.54
43394;BME280;62479;62.642;17.954;2022-08-14T10:08:45;101919.61;;;32.36;28.59
43394;BME280;62479;62.642;17.954;2022-08-14T10:11:16;101921.13;;;32.25;28.36
43394;BME280;62479;62.642;17.954;2022-08-14T10:13:47;101918.71;;;32.70;28.38
43394;BME280;62479;62.642;17.954;2022-08-14T10:16:15;101918.88;;;32.53;28.56
43394;BME280;62479;62.642;17.954;2022-08-14T10:18:44;101917.84;;;32.83;28.09
43394;BME280;62479;62.642;17.954;2022-08-14T10:21:16;101918.78;;;33.23;27.38
43394;BME280;62479;62.642;17.954;2022-08-14T10:23:46;101917.60;;;33.14;27.12
43394;BME280;62479;62.642;17.954;2022-08-14T10:26:17;101918.39;;;32.96;27.24
43394;BME280;62479;62.642;17.954;2022-08-14T10:28:47;101916.53;;;32.83;27.94
43394;BME280;62479;62.642;17.954;2022-08-14T10:31:20;101916.50;;;32.48;28.11
43394;BME280;62479;62.642;17.954;2022-08-14T10:34:00;101917.08;;;32.46;27.68
43394;BME280;62479;62.642;17.954;2022-08-14T10:36:31;101916.56;;;32.23;28.50
43394;BME280;62479;62.642;17.954;2022-08-14T10:39:07;101917.48;;;31.96;28.42
43394;BME280;62479;62.642;17.954;2022-08-14T10:41:38;101918.17;;;32.10;28.67
43394;BME280;62479;62.642;17.954;2022-08-14T10:44:09;101912.90;;;31.92;29.25
43394;BME280;62479;62.642;17.954;2022-08-14T10:46:43;101910.95;;;31.69;29.57
43394;BME280;62479;62.642;17.954;2022-08-14T10:49:18;101913.54;;;31.45;29.86
43394;BME280;62479;62.642;17.954;2022-08-14T10:52:04;101914.90;;;31.12;30.18
43394;BME280;62479;62.642;17.954;2022-08-14T10:54:37;101911.17;;;31.08;30.33
43394;BME280;62479;62.642;17.954;2022-08-14T10:57:18;101910.86;;;30.70;30.24
43394;BME280;62479;62.642;17.954;2022-08-14T10:59:49;101906.72;;;30.54;30.74
43394;BME280;62479;62.642;17.954;2022-08-14T11:02:22;101907.76;;;30.25;30.73
43394;BME280;62479;62.642;17.954;2022-08-14T11:05:08;101909.22;;;30.20;31.12
43394;BME280;62479;62.642;17.954;2022-08-14T11:07:39;101913.41;;;30.16;31.83
43394;BME280;62479;62.642;17.954;2022-08-14T11:10:09;101910.00;;;30.05;31.67
43394;BME280;62479;62.642;17.954;2022-08-14T11:12:41;101907.66;;;30.12;32.06
43394;BME280;62479;62.642;17.954;2022-08-14T11:15:09;101906.70;;;30.00;32.28
43394;BME280;62479;62.642;17.954;2022-08-14T11:17:38;101905.30;;;29.83;32.37
43394;BME280;62479;62.642;17.954;2022-08-14T11:20:08;101904.20;;;29.85;31.90
43394;BME280;62479;62.642;17.954;2022-08-14T11:22:39;101905.25;;;29.55;33.16
43394;BME280;62479;62.642;17.954;2022-08-14T11:25:10;101909.38;;;29.26;33.13
43394;BME280;62479;62.642;17.954;2022-08-14T11:27:40;101914.14;;;29.20;32.71
43394;BME280;62479;62.642;17.954;2022-08-14T11:30:14;101909.32;;;28.86;34.75
43394;BME280;62479;62.642;17.954;2022-08-14T11:32:44;101913.82;;;28.46;34.64
43394;BME280;62479;62.642;17.954;2022-08-14T11:35:16;101915.89;;;28.40;34.92
43394;BME280;62479;62.642;17.954;2022-08-14T11:37:53;101915.69;;;28.43;35.25
43394;BME280;62479;62.642;17.954;2022-08-14T11:40:25;101918.43;;;28.11;35.81
43394;BME280;62479;62.642;17.954;2022-08-14T11:42:56;101913.81;;;28.18;35.79
43394;BME280;62479;62.642;17.954;2022-08-14T11:45:26;101918.25;;;28.29;35.51
43394;BME280;62479;62.642;17.954;2022-08-14T11:47:55;101919.04;;;28.28;34.93
43394;BME280;62479;62.642;17.954;2022-08-14T11:50:27;101916.01;;;27.96;35.86
43394;BME280;62479;62.642;17.954;2022-08-14T11:52:56;101918.47;;;27.08;36.79
43394;BME280;62479;62.642;17.954;2022-08-14T11:55:33;101927.07;;;26.37;38.47
43394;BME280;62479;62.642;17.954;2022-08-14T11:58:04;101924.62;;;25.59;39.76
43394;BME280;62479;62.642;17.954;2022-08-14T12:00:45;101922.37;;;24.67;41.51
43394;BME280;62479;62.642;17.954;2022-08-14T12:03:19;101920.39;;;24.12;43.27
43394;BME280;62479;62.642;17.954;2022-08-14T12:05:48;101920.14;;;23.75;43.88
43394;BME280;62479;62.642;17.954;2022-08-14T12:08:16;101922.81;;;23.07;45.93
43394;BME280;62479;62.642;17.954;2022-08-14T12:10:44;101921.56;;;22.67;46.83
43394;BME280;62479;62.642;17.954;2022-08-14T12:13:14;101920.51;;;22.23;47.32
43394;BME280;62479;62.642;17.954;2022-08-14T12:15:46;101931.36;;;21.81;49.27
43394;BME280;62479;62.642;17.954;2022-08-14T12:18:28;101932.59;;;21.43;50.91
43394;BME280;62479;62.642;17.954;2022-08-14T12:20:57;101933.13;;;21.11;51.33
43394;BME280;62479;62.642;17.954;2022-08-14T12:23:31;101932.32;;;20.77;52.11
43394;BME280;62479;62.642;17.954;2022-08-14T12:26:02;101926.07;;;20.80;52.66
43394;BME280;62479;62.642;17.954;2022-08-14T12:28:30;101925.30;;;20.87;52.69
43394;BME280;62479;62.642;17.954;2022-08-14T12:30:58;101923.78;;;20.82;53.17
43394;BME280;62479;62.642;17.954;2022-08-14T12:33:29;101918.90;;;20.74;53.09
43394;BME280;62479;62.642;17.954;2022-08-14T12:35:59;101914.90;;;20.54;54.08
43394;BME280;62479;62.642;17.954;2022-08-14T12:38:33;101910.19;;;20.43;54.02
43394;BME280;62479;62.642;17.954;2022-08-14T12:41:03;101913.39;;;20.40;54.99
43394;BME280;62479;62.642;17.954;2022-08-14T12:43:32;101918.46;;;20.26;55.37
43394;BME280;62479;62.642;17.954;2022-08-14T12:46:20;101918.85;;;20.13;54.90
43394;BME280;62479;62.642;17.954;2022-08-14T12:48:48;101914.19;;;20.18;55.43
43394;BME280;62479;62.642;17.954;2022-08-14T12:51:17;101912.56;;;20.04;55.82
43394;BME280;62479;62.642;17.954;2022-08-14T12:53:46;101910.83;;;20.05;56.30
43394;BME280;62479;62.642;17.954;2022-08-14T12:56:17;101908.42;;;20.19;55.66
43394;BME280;62479;62.642;17.954;2022-08-14T12:58:47;101905.08;;;20.15;55.35